createdAt,value
2023-05-10T00:00:32.608Z,49.85
2023-05-10T00:03:30.386Z,50.16
2023-05-10T00:06:10.874Z,49.91
2023-05-10T00:08:54.065Z,50.02
2023-05-10T00:11:32.816Z,50.17
2023-05-10T00:14:18.066Z,50.40
2023-05-10T00:16:54.755Z,50.50
2023-05-10T00:19:39.325Z,50.51
2023-05-10T00:22:15.746Z,50.42
2023-05-10T00:24:53.471Z,50.54
2023-05-10T00:27:34.146Z,50.72
2023-05-10T00:30:11.516Z,50.77
2023-05-10T00:32:46.900Z,50.88
2023-05-10T00:35:27.123Z,50.76
2023-05-10T00:38:08.588Z,50.87
2023-05-10T00:40:47.497Z,50.77
2023-05-10T00:43:31.704Z,50.79
2023-05-10T00:46:22.921Z,51.11
2023-05-10T00:49:02.443Z,51.25
2023-05-10T00:51:44.735Z,51.31
2023-05-10T00:54:31.932Z,51.69
2023-05-10T00:57:18.561Z,51.74
2023-05-10T01:00:02.326Z,51.58
2023-05-10T01:02:37.036Z,51.60
2023-05-10T01:05:11.685Z,51.85
2023-05-10T01:07:50.698Z,51.75
2023-05-10T01:10:28.883Z,51.85
2023-05-10T01:13:05.458Z,51.80
2023-05-10T01:15:45.069Z,51.96
2023-05-10T01:18:25.029Z,52.01
2023-05-10T01:21:21.509Z,51.99
2023-05-10T01:24:41.529Z,52.17
2023-05-10T01:28:08.792Z,52.36
2023-05-10T01:31:09.008Z,52.51
2023-05-10T01:34:00.760Z,52.61
2023-05-10T01:36:42.711Z,52.65
2023-05-10T01:39:27.206Z,52.71
2023-05-10T01:42:07.186Z,52.75
2023-05-10T01:45:01.347Z,53.06
2023-05-10T01:47:45.025Z,53.15
2023-05-10T01:50:31.829Z,53.13
2023-05-10T01:53:10.529Z,53.24
2023-05-10T01:55:51.589Z,53.61
2023-05-10T01:58:32.887Z,53.55
2023-05-10T02:01:13.847Z,53.63
2023-05-10T02:03:56.592Z,53.72
2023-05-10T02:06:56.747Z,53.60
2023-05-10T02:09:38.672Z,53.77
2023-05-10T02:12:20.997Z,53.77
2023-05-10T02:15:05.021Z,53.99
2023-05-10T02:17:50.732Z,53.93
2023-05-10T02:20:29.347Z,54.12
2023-05-10T02:23:07.895Z,53.77
2023-05-10T02:25:55.343Z,54.02
2023-05-10T02:28:35.086Z,54.15
2023-05-10T02:31:12.160Z,54.30
2023-05-10T02:33:51.378Z,53.92
2023-05-10T02:36:33.530Z,54.03
2023-05-10T02:39:16.013Z,54.35
2023-05-10T02:42:01.151Z,54.48
2023-05-10T02:44:48.135Z,54.44
2023-05-10T02:47:24.983Z,54.60
2023-05-10T02:50:05.182Z,54.60
2023-05-10T02:52:58.805Z,54.72
2023-05-10T02:55:42.572Z,54.56
2023-05-10T02:58:24.562Z,54.60
2023-05-10T03:01:11.272Z,54.71
2023-05-10T03:03:50.411Z,54.66
2023-05-10T03:06:33.395Z,54.81
2023-05-10T03:09:10.732Z,54.89
2023-05-10T03:12:04.316Z,55.23
2023-05-10T03:14:54.445Z,55.16
2023-05-10T03:17:39.871Z,55.36
2023-05-10T03:20:28.403Z,55.20
2023-05-10T03:23:08.596Z,55.32
2023-05-10T03:25:46.129Z,55.27
2023-05-10T03:28:25.306Z,55.35
2023-05-10T03:31:07.495Z,55.36
2023-05-10T03:33:59.220Z,55.59
2023-05-10T03:36:36.325Z,55.52
2023-05-10T03:39:12.806Z,55.54
2023-05-10T03:41:46.159Z,55.53
2023-05-10T03:44:38.484Z,55.66
2023-05-10T03:47:13.303Z,55.62
2023-05-10T03:49:57.135Z,55.89
2023-05-10T03:52:32.981Z,55.96
2023-05-10T03:55:19.030Z,55.68
2023-05-10T03:57:57.628Z,55.61
2023-05-10T04:00:34.364Z,55.42
2023-05-10T04:03:10.849Z,55.47
2023-05-10T04:05:48.588Z,55.47
2023-05-10T04:08:31.844Z,55.29
2023-05-10T04:11:24.120Z,55.16
2023-05-10T04:14:05.175Z,55.08
2023-05-10T04:16:40.222Z,54.94
2023-05-10T04:19:18.312Z,54.90
2023-05-10T04:21:55.549Z,54.62
2023-05-10T04:24:34.955Z,54.50
2023-05-10T04:27:14.591Z,54.38
2023-05-10T04:29:52.738Z,54.26
2023-05-10T04:32:34.303Z,54.11
2023-05-10T04:35:19.027Z,53.87
2023-05-10T04:37:59.037Z,53.93
2023-05-10T04:40:42.358Z,53.87
2023-05-10T04:43:29.172Z,53.67
2023-05-10T04:46:08.442Z,53.70
2023-05-10T04:48:47.399Z,53.54
2023-05-10T04:51:23.429Z,53.43
2023-05-10T04:54:05.856Z,53.42
2023-05-10T04:56:43.918Z,53.44
2023-05-10T04:59:22.323Z,53.29
2023-05-10T05:02:01.106Z,53.30
2023-05-10T05:04:45.473Z,53.42
2023-05-10T05:07:36.317Z,53.35
2023-05-10T05:10:28.081Z,53.47
2023-05-10T05:13:04.882Z,53.26
2023-05-10T05:15:44.381Z,53.23
2023-05-10T05:18:31.186Z,53.37
2023-05-10T05:21:16.290Z,53.16
2023-05-10T05:23:53.450Z,53.27
2023-05-10T05:26:32.005Z,53.05
2023-05-10T05:29:11.896Z,52.99
2023-05-10T05:31:48.061Z,53.01
2023-05-10T05:34:27.939Z,52.60
2023-05-10T05:37:04.863Z,52.41
2023-05-10T05:39:42.921Z,52.17
2023-05-10T05:42:29.320Z,51.84
2023-05-10T05:45:07.978Z,51.71
2023-05-10T05:47:45.969Z,51.33
2023-05-10T05:50:22.406Z,50.92
2023-05-10T05:52:59.224Z,50.52
2023-05-10T05:55:35.978Z,50.28
2023-05-10T05:58:13.868Z,49.84
2023-05-10T06:00:55.064Z,49.70
2023-05-10T06:03:33.221Z,49.13
2023-05-10T06:06:10.430Z,48.69
2023-05-10T06:08:51.442Z,48.23
2023-05-10T06:11:38.991Z,47.56
2023-05-10T06:14:20.057Z,47.37
2023-05-10T06:17:06.435Z,46.94
2023-05-10T06:19:44.085Z,46.29
2023-05-10T06:22:22.686Z,46.48
2023-05-10T06:25:07.531Z,46.55
2023-05-10T06:27:41.288Z,46.57
2023-05-10T06:30:19.948Z,46.49
2023-05-10T06:33:02.641Z,45.80
2023-05-10T06:35:36.312Z,46.00
2023-05-10T06:38:11.055Z,45.65
2023-05-10T06:40:49.888Z,45.64
2023-05-10T06:43:27.631Z,45.26
2023-05-10T06:46:07.450Z,44.89
2023-05-10T06:48:48.522Z,44.80
2023-05-10T06:51:24.170Z,44.37
2023-05-10T06:54:06.112Z,44.41
2023-05-10T06:56:46.957Z,43.91
2023-05-10T06:59:41.949Z,43.49
2023-05-10T07:02:19.458Z,43.25
2023-05-10T07:04:55.922Z,42.83
2023-05-10T07:07:32.422Z,42.59
2023-05-10T07:10:11.480Z,42.43
2023-05-10T07:12:48.880Z,42.71
2023-05-10T07:15:25.918Z,42.77
2023-05-10T07:18:01.652Z,42.52
2023-05-10T07:20:54.253Z,42.15
2023-05-10T07:23:33.004Z,42.53
2023-05-10T07:26:09.144Z,42.64
2023-05-10T07:28:49.245Z,42.27
2023-05-10T07:31:26.361Z,41.89
2023-05-10T07:34:03.169Z,41.58
2023-05-10T07:36:39.085Z,41.18
2023-05-10T07:39:18.656Z,41.31
2023-05-10T07:42:03.198Z,41.44
2023-05-10T07:44:40.620Z,41.55
2023-05-10T07:47:20.138Z,41.45
2023-05-10T07:49:56.385Z,41.34
2023-05-10T07:52:49.020Z,41.27
2023-05-10T07:55:27.700Z,41.07
2023-05-10T07:58:04.264Z,41.37
2023-05-10T08:00:43.798Z,41.18
2023-05-10T08:03:19.517Z,40.17
2023-05-10T08:05:55.632Z,39.69
2023-05-10T08:08:32.742Z,40.22
2023-05-10T08:11:08.679Z,40.37
2023-05-10T08:13:52.530Z,40.72
2023-05-10T08:16:27.327Z,40.42
2023-05-10T08:19:06.446Z,39.75
2023-05-10T08:21:45.173Z,39.75
2023-05-10T08:24:28.971Z,39.45
2023-05-10T08:27:09.405Z,38.90
2023-05-10T08:29:50.418Z,38.44
2023-05-10T08:32:27.662Z,38.31
2023-05-10T08:35:07.826Z,38.10
2023-05-10T08:37:47.005Z,37.83
2023-05-10T08:40:25.792Z,37.56
2023-05-10T08:43:09.588Z,37.52
2023-05-10T08:45:53.906Z,37.65
2023-05-10T08:48:32.630Z,37.83
2023-05-10T08:51:12.307Z,37.58
2023-05-10T08:54:09.225Z,37.80
2023-05-10T08:56:48.574Z,37.80
2023-05-10T08:59:29.832Z,37.62
2023-05-10T09:02:05.948Z,37.63
2023-05-10T09:04:42.505Z,37.20
2023-05-10T09:07:17.889Z,36.79
2023-05-10T09:09:55.063Z,37.15
2023-05-10T09:12:31.281Z,37.15
2023-05-10T09:15:14.441Z,36.83
2023-05-10T09:17:53.168Z,36.74
2023-05-10T09:20:29.356Z,36.52
2023-05-10T09:23:06.291Z,36.45
2023-05-10T09:25:47.397Z,36.52
2023-05-10T09:28:30.285Z,36.39
2023-05-10T09:31:09.930Z,36.60
2023-05-10T09:33:51.881Z,36.46
2023-05-10T09:36:27.914Z,36.32
2023-05-10T09:39:04.644Z,36.53
2023-05-10T09:41:42.580Z,36.52
2023-05-10T09:44:20.207Z,36.20
2023-05-10T09:46:57.254Z,35.90
2023-05-10T09:49:35.040Z,35.40
2023-05-10T09:52:12.225Z,35.41
2023-05-10T09:54:56.537Z,35.26
2023-05-10T09:57:34.619Z,35.50
2023-05-10T10:00:19.952Z,35.27
2023-05-10T10:03:00.985Z,35.30
2023-05-10T10:05:37.978Z,35.14
2023-05-10T10:08:17.768Z,34.78
2023-05-10T10:10:54.399Z,34.64
2023-05-10T10:13:33.925Z,34.85
2023-05-10T10:16:15.192Z,34.48
2023-05-10T10:18:58.000Z,34.33
2023-05-10T10:21:36.036Z,34.51
2023-05-10T10:24:11.477Z,34.48
2023-05-10T10:26:49.964Z,34.07
2023-05-10T10:29:35.557Z,33.85
2023-05-10T10:32:21.405Z,33.76
2023-05-10T10:35:00.382Z,33.72
2023-05-10T10:37:49.777Z,34.21
2023-05-10T10:40:34.899Z,34.37
2023-05-10T10:43:27.370Z,33.78
2023-05-10T10:47:02.061Z,34.01
2023-05-10T10:49:46.099Z,33.52
2023-05-10T10:52:35.235Z,33.50
2023-05-10T10:55:14.131Z,33.41
2023-05-10T10:58:01.654Z,33.29
2023-05-10T11:00:42.872Z,32.97
2023-05-10T11:03:20.730Z,33.27
2023-05-10T11:06:03.382Z,33.11
2023-05-10T11:08:46.920Z,33.44
2023-05-10T11:11:23.832Z,33.81
2023-05-10T11:14:05.866Z,33.67
2023-05-10T11:16:49.029Z,33.64
2023-05-10T11:19:30.901Z,33.19
2023-05-10T11:22:19.973Z,32.91
2023-05-10T11:25:04.770Z,32.92
2023-05-10T11:27:44.648Z,33.06
2023-05-10T11:30:19.763Z,33.22
2023-05-10T11:32:56.938Z,33.08
2023-05-10T11:35:33.859Z,33.36
2023-05-10T11:38:13.567Z,33.17
2023-05-10T11:40:50.428Z,33.29
2023-05-10T11:43:32.471Z,33.63
2023-05-10T11:46:10.821Z,33.36
2023-05-10T11:48:47.824Z,32.79
2023-05-10T11:51:26.399Z,32.75
2023-05-10T11:54:04.309Z,32.22
2023-05-10T11:56:41.526Z,32.42
2023-05-10T11:59:20.772Z,32.24
2023-05-10T12:01:56.921Z,32.34
2023-05-10T12:04:33.765Z,32.48
2023-05-10T12:07:09.254Z,32.55
2023-05-10T12:10:04.198Z,32.29
2023-05-10T12:12:46.127Z,32.01
2023-05-10T12:15:29.564Z,32.00
2023-05-10T12:18:06.762Z,32.01
2023-05-10T12:20:51.447Z,32.34
2023-05-10T12:23:28.891Z,32.35
2023-05-10T12:26:23.028Z,31.98
2023-05-10T12:29:20.172Z,31.56
2023-05-10T12:32:03.035Z,31.70
2023-05-10T12:34:40.605Z,31.84
2023-05-10T12:37:17.095Z,31.85
2023-05-10T12:39:54.664Z,31.79
2023-05-10T12:42:32.012Z,31.43
2023-05-10T12:45:16.414Z,31.23
2023-05-10T12:47:55.678Z,31.60
2023-05-10T12:50:32.440Z,31.62
2023-05-10T12:53:15.154Z,31.26
2023-05-10T12:55:51.022Z,31.21
2023-05-10T12:58:35.622Z,31.29
2023-05-10T13:01:17.502Z,30.79
2023-05-10T13:03:52.924Z,30.58
2023-05-10T13:06:34.436Z,30.77
2023-05-10T13:09:13.129Z,30.99
2023-05-10T13:11:49.216Z,30.94
2023-05-10T13:14:25.123Z,31.11
2023-05-10T13:17:04.748Z,31.35
2023-05-10T13:19:46.171Z,30.87
2023-05-10T13:22:36.380Z,30.68
2023-05-10T13:25:17.302Z,30.97
2023-05-10T13:27:55.848Z,30.88
2023-05-10T13:30:32.457Z,30.88
2023-05-10T13:33:13.613Z,30.90
2023-05-10T13:35:50.272Z,30.76
2023-05-10T13:38:36.785Z,30.41
2023-05-10T13:41:13.214Z,30.68
2023-05-10T13:43:51.176Z,30.39
2023-05-10T13:46:28.237Z,30.73
2023-05-10T13:49:09.852Z,30.45
2023-05-10T13:51:45.557Z,30.32
2023-05-10T13:54:24.588Z,30.78
2023-05-10T13:57:04.124Z,30.69
2023-05-10T13:59:40.428Z,30.79
2023-05-10T14:02:18.231Z,30.68
2023-05-10T14:05:00.468Z,30.94
2023-05-10T14:07:37.642Z,31.28
2023-05-10T14:10:20.363Z,31.17
2023-05-10T14:12:57.300Z,31.26
2023-05-10T14:15:36.646Z,30.61
2023-05-10T14:18:13.128Z,30.56
2023-05-10T14:20:49.961Z,30.57
2023-05-10T14:23:30.738Z,30.43
2023-05-10T14:26:09.032Z,30.38
2023-05-10T14:28:44.198Z,30.29
2023-05-10T14:31:21.670Z,30.18
2023-05-10T14:33:57.406Z,30.38
2023-05-10T14:36:34.940Z,30.46
2023-05-10T14:39:14.564Z,30.11
2023-05-10T14:41:53.281Z,30.03
2023-05-10T14:44:32.228Z,29.95
2023-05-10T14:47:12.447Z,30.08
2023-05-10T14:49:46.894Z,30.00
2023-05-10T14:52:25.610Z,30.44
2023-05-10T14:55:02.715Z,30.44
2023-05-10T14:57:41.319Z,30.42
2023-05-10T15:00:23.727Z,30.68
2023-05-10T15:03:02.452Z,30.63
2023-05-10T15:05:39.048Z,30.33
2023-05-10T15:08:14.932Z,30.03
2023-05-10T15:10:57.703Z,30.41
2023-05-10T15:13:35.651Z,30.70
2023-05-10T15:16:13.456Z,30.86
2023-05-10T15:18:51.545Z,30.64
2023-05-10T15:21:26.997Z,30.45
2023-05-10T15:24:07.142Z,30.40
2023-05-10T15:26:43.085Z,30.87
2023-05-10T15:29:21.748Z,31.19
2023-05-10T15:31:57.653Z,31.00
2023-05-10T15:34:36.406Z,31.35
2023-05-10T15:37:15.689Z,30.99
2023-05-10T15:39:53.112Z,30.72
2023-05-10T15:42:27.359Z,30.43
2023-05-10T15:45:03.303Z,30.48
2023-05-10T15:47:40.833Z,30.73
2023-05-10T15:50:18.183Z,30.86
2023-05-10T15:52:55.375Z,30.69
2023-05-10T15:55:33.556Z,30.84
2023-05-10T15:58:10.295Z,30.88
2023-05-10T16:00:45.973Z,30.97
2023-05-10T16:03:26.321Z,31.20
2023-05-10T16:06:10.828Z,31.06
2023-05-10T16:08:46.474Z,30.51
2023-05-10T16:11:21.764Z,29.94
2023-05-10T16:13:57.927Z,29.69
2023-05-10T16:16:33.137Z,29.70
2023-05-10T16:19:08.135Z,29.85
2023-05-10T16:21:44.191Z,29.54
2023-05-10T16:24:20.980Z,29.03
2023-05-10T16:26:55.577Z,29.20
2023-05-10T16:29:31.233Z,29.11
2023-05-10T16:32:10.433Z,29.42
2023-05-10T16:34:48.349Z,29.89
2023-05-10T16:37:24.123Z,29.69
2023-05-10T16:39:59.716Z,29.77
2023-05-10T16:42:37.530Z,29.75
2023-05-10T16:45:19.366Z,29.47
2023-05-10T16:47:56.765Z,29.98
2023-05-10T16:50:32.860Z,30.15
2023-05-10T16:53:10.138Z,30.24
2023-05-10T16:55:45.781Z,30.42
2023-05-10T16:58:23.616Z,30.63
2023-05-10T17:00:58.631Z,30.83
2023-05-10T17:03:34.720Z,31.34
2023-05-10T17:06:11.734Z,31.22
2023-05-10T17:08:48.294Z,31.08
2023-05-10T17:11:25.112Z,30.89
2023-05-10T17:14:02.148Z,30.88
2023-05-10T17:16:39.696Z,31.10
2023-05-10T17:19:15.651Z,31.39
2023-05-10T17:21:52.200Z,31.31
2023-05-10T17:24:30.647Z,31.36
2023-05-10T17:27:05.511Z,31.40
2023-05-10T17:29:40.482Z,31.29
2023-05-10T17:32:15.903Z,31.43
2023-05-10T17:34:52.125Z,31.62
2023-05-10T17:37:30.888Z,31.55
2023-05-10T17:40:06.445Z,31.46
2023-05-10T17:42:43.743Z,31.64
2023-05-10T17:45:20.055Z,31.77
2023-05-10T17:47:56.362Z,31.73
2023-05-10T17:50:34.298Z,31.90
2023-05-10T17:53:11.927Z,32.09
2023-05-10T17:55:48.007Z,31.97
2023-05-10T17:58:26.313Z,32.17
2023-05-10T18:01:01.991Z,32.36
2023-05-10T18:03:38.728Z,32.63
2023-05-10T18:06:15.979Z,32.78
2023-05-10T18:08:53.482Z,33.06
2023-05-10T18:11:32.269Z,33.13
2023-05-10T18:14:08.937Z,33.24
2023-05-10T18:16:46.371Z,33.29
2023-05-10T18:19:23.135Z,33.34
2023-05-10T18:21:59.012Z,33.43
2023-05-10T18:24:41.129Z,33.60
2023-05-10T18:27:19.740Z,34.11
2023-05-10T18:29:58.090Z,34.22
2023-05-10T18:32:34.204Z,34.33
2023-05-10T18:35:12.241Z,34.67
2023-05-10T18:37:49.370Z,34.80
2023-05-10T18:40:25.741Z,35.07
2023-05-10T18:43:13.131Z,35.15
2023-05-10T18:46:05.701Z,35.49
2023-05-10T18:48:41.956Z,35.87
2023-05-10T18:51:16.649Z,35.84
2023-05-10T18:53:54.436Z,36.07
2023-05-10T18:56:33.343Z,36.42
2023-05-10T18:59:09.793Z,36.44
2023-05-10T19:02:00.520Z,36.59
2023-05-10T19:04:40.954Z,36.70
2023-05-10T19:07:19.055Z,36.94
2023-05-10T19:09:55.571Z,36.99
2023-05-10T19:12:30.696Z,37.24
2023-05-10T19:15:11.088Z,37.31
2023-05-10T19:17:52.684Z,37.31
2023-05-10T19:20:42.933Z,37.66
2023-05-10T19:23:30.390Z,37.76
2023-05-10T19:26:07.887Z,37.68
2023-05-10T19:28:54.477Z,37.86
2023-05-10T19:31:48.988Z,37.82
2023-05-10T19:34:29.875Z,37.95
2023-05-10T19:37:06.866Z,38.15
2023-05-10T19:39:43.536Z,38.27
2023-05-10T19:42:19.565Z,38.10
2023-05-10T19:44:57.570Z,38.26
2023-05-10T19:47:36.423Z,38.49
2023-05-10T19:50:19.284Z,38.37
2023-05-10T19:52:55.577Z,38.66
2023-05-10T19:55:36.902Z,38.68
2023-05-10T19:58:15.345Z,38.84
2023-05-10T20:00:55.919Z,38.77
2023-05-10T20:03:34.295Z,38.74
2023-05-10T20:06:15.442Z,38.81
2023-05-10T20:08:51.332Z,38.86
2023-05-10T20:11:28.477Z,39.04
2023-05-10T20:14:04.354Z,39.08
2023-05-10T20:16:40.527Z,39.16
2023-05-10T20:19:17.922Z,39.13
2023-05-10T20:21:56.224Z,39.12
2023-05-10T20:24:32.649Z,39.24
2023-05-10T20:27:09.834Z,39.22
2023-05-10T20:29:45.929Z,39.34
2023-05-10T20:32:22.413Z,39.34
2023-05-10T20:35:17.772Z,39.51
2023-05-10T20:37:57.863Z,39.69
2023-05-10T20:40:36.588Z,39.68
2023-05-10T20:43:11.730Z,39.96
2023-05-10T20:46:06.710Z,39.95
2023-05-10T20:48:45.175Z,40.00
2023-05-10T20:51:26.161Z,40.08
2023-05-10T20:54:07.599Z,40.06
2023-05-10T20:56:43.058Z,40.15
2023-05-10T20:59:31.554Z,40.26
2023-05-10T21:02:15.126Z,40.38
2023-05-10T21:04:50.795Z,40.46
2023-05-10T21:07:40.726Z,40.37
2023-05-10T21:10:34.266Z,40.63
2023-05-10T21:13:16.481Z,40.53
2023-05-10T21:15:56.851Z,40.69
2023-05-10T21:18:38.494Z,40.86
2023-05-10T21:21:20.261Z,41.01
2023-05-10T21:24:15.015Z,40.82
2023-05-10T21:26:53.517Z,41.23
2023-05-10T21:29:50.316Z,41.01
2023-05-10T21:32:52.775Z,41.15
2023-05-10T21:35:47.553Z,41.29
2023-05-10T21:38:27.504Z,41.39
2023-05-10T21:41:09.994Z,41.36
2023-05-10T21:43:52.113Z,41.57
2023-05-10T21:46:41.652Z,41.45
2023-05-10T21:49:21.797Z,41.46
2023-05-10T21:52:02.328Z,41.74
2023-05-10T21:54:37.900Z,41.87
2023-05-10T21:57:15.872Z,41.78
2023-05-10T22:00:11.601Z,41.81
2023-05-10T22:02:50.677Z,41.77
2023-05-10T22:05:33.507Z,41.77
2023-05-10T22:08:13.470Z,41.83
2023-05-10T22:11:15.297Z,41.92
2023-05-10T22:13:51.558Z,41.87
2023-05-10T22:17:06.613Z,42.07
2023-05-10T22:20:01.927Z,42.22
2023-05-10T22:22:40.292Z,42.14
2023-05-10T22:25:16.553Z,42.20
2023-05-10T22:27:55.473Z,42.38
2023-05-10T22:30:33.871Z,42.47
2023-05-10T22:33:10.092Z,42.50
2023-05-10T22:35:52.346Z,42.60
2023-05-10T22:38:32.535Z,42.56
2023-05-10T22:41:08.280Z,42.75
2023-05-10T22:43:54.154Z,43.01
2023-05-10T22:46:32.732Z,42.93
2023-05-10T22:49:07.885Z,43.14
2023-05-10T22:51:47.197Z,43.28
2023-05-10T22:54:25.528Z,43.32
2023-05-10T22:57:05.869Z,43.25
2023-05-10T22:59:42.357Z,43.31
2023-05-10T23:02:15.692Z,43.62
2023-05-10T23:04:54.339Z,43.68
2023-05-10T23:07:40.602Z,43.66
2023-05-10T23:10:20.270Z,43.76
2023-05-10T23:12:57.980Z,43.86
2023-05-10T23:15:36.280Z,44.00
2023-05-10T23:18:13.118Z,44.15
2023-05-10T23:20:49.647Z,44.20
2023-05-10T23:23:25.673Z,44.22
2023-05-10T23:26:01.873Z,44.23
2023-05-10T23:28:37.845Z,44.38
2023-05-10T23:31:14.870Z,44.53
2023-05-10T23:33:50.098Z,44.59
2023-05-10T23:36:26.237Z,44.73
2023-05-10T23:39:02.307Z,44.75
2023-05-10T23:41:37.510Z,44.82
2023-05-10T23:44:13.766Z,44.92
2023-05-10T23:46:49.982Z,45.16
2023-05-10T23:49:25.943Z,45.21
2023-05-10T23:51:59.523Z,45.30
2023-05-10T23:54:35.700Z,45.25
2023-05-10T23:57:12.395Z,45.45
2023-05-10T23:59:48.505Z,45.57
